Saint Anne, Missouri
Current Conditions -  °F | °C
As of 9:51 AM on Wednesday 26 Nov 2014 (Local Time) from KSTL Reporting Station
Overcast Overcast  
Wind Chill: 25°   Ceiling: 7500
Heat Index: 34°   Visibility: 7mi
Dew Point: 27°   Wind: 12mph
Humidity: 75%   Direction: 130°SE
Pressure: 30.04"   Gusts: NA
Location:  38.7263°N, 90.3885°W
Report Text: KSTL 261551Z 13010KT 7SM BKN075 OVC200 01/M03 A3004 RMK AO2 SLP183 T00111028
Loading
Personal Weather Stations






























Interactive Weather Map New forecast layout! Learn more

10-Day Weather Forecast

Advertisements
Track Severe Weather on mobile